Terminal Aerodrome Forecast
Issued by NWS

Home | Current Version | Previous Version | Text Only | Print | Product List | Glossary On
Versions: 1 2 3 4 5 6 7 8 9 10 11 12
000
FTUS42 KTBW 161134
TAFPIE
TAF
KPIE 161134Z 1612/1712 03004KT P6SM SCT020 BKN040
     FM161500 03006KT P6SM SCT040 BKN250
     FM170100 07008KT P6SM SCT250=

USA.gov is the U.S. government's official web portal to all federal, state and local government web resources and services.